sensor_id;sensor_type;location;lat;lon;timestamp;temperature;humidity
27633;DHT22;15046;50.930;13.334;2024-01-30T00:01:56;4.60;70.60
27633;DHT22;15046;50.930;13.334;2024-01-30T00:04:22;4.60;70.80
27633;DHT22;15046;50.930;13.334;2024-01-30T00:06:47;4.60;70.90
27633;DHT22;15046;50.930;13.334;2024-01-30T00:09:13;4.50;71.10
27633;DHT22;15046;50.930;13.334;2024-01-30T00:11:39;4.50;71.20
27633;DHT22;15046;50.930;13.334;2024-01-30T00:14:05;4.50;71.40
27633;DHT22;15046;50.930;13.334;2024-01-30T00:16:31;4.50;71.50
27633;DHT22;15046;50.930;13.334;2024-01-30T00:18:57;4.50;71.60
27633;DHT22;15046;50.930;13.334;2024-01-30T00:21:23;4.40;71.60
27633;DHT22;15046;50.930;13.334;2024-01-30T00:23:49;4.40;71.80
27633;DHT22;15046;50.930;13.334;2024-01-30T00:26:15;4.30;71.90
27633;DHT22;15046;50.930;13.334;2024-01-30T00:28:42;4.30;72.10
27633;DHT22;15046;50.930;13.334;2024-01-30T00:31:08;4.30;72.20
27633;DHT22;15046;50.930;13.334;2024-01-30T00:33:38;4.30;72.30
27633;DHT22;15046;50.930;13.334;2024-01-30T00:36:05;4.20;72.30
27633;DHT22;15046;50.930;13.334;2024-01-30T00:38:32;4.20;72.70
27633;DHT22;15046;50.930;13.334;2024-01-30T00:40:58;4.10;72.60
27633;DHT22;15046;50.930;13.334;2024-01-30T00:43:24;4.10;72.80
27633;DHT22;15046;50.930;13.334;2024-01-30T00:45:51;4.10;72.90
27633;DHT22;15046;50.930;13.334;2024-01-30T00:48:18;4.10;73.10
27633;DHT22;15046;50.930;13.334;2024-01-30T00:50:44;4.00;73.10
27633;DHT22;15046;50.930;13.334;2024-01-30T00:53:09;4.00;73.20
27633;DHT22;15046;50.930;13.334;2024-01-30T00:55:35;4.00;73.30
27633;DHT22;15046;50.930;13.334;2024-01-30T00:58:01;4.00;73.40
27633;DHT22;15046;50.930;13.334;2024-01-30T01:00:28;4.00;73.50
27633;DHT22;15046;50.930;13.334;2024-01-30T01:02:55;4.00;73.50
27633;DHT22;15046;50.930;13.334;2024-01-30T01:05:21;4.00;73.50
27633;DHT22;15046;50.930;13.334;2024-01-30T01:07:47;4.00;73.60
27633;DHT22;15046;50.930;13.334;2024-01-30T01:10:18;4.00;73.60
27633;DHT22;15046;50.930;13.334;2024-01-30T01:12:45;4.00;73.80
27633;DHT22;15046;50.930;13.334;2024-01-30T01:15:11;4.00;73.80
27633;DHT22;15046;50.930;13.334;2024-01-30T01:17:38;4.00;73.80
27633;DHT22;15046;50.930;13.334;2024-01-30T01:20:05;4.00;73.90
27633;DHT22;15046;50.930;13.334;2024-01-30T01:22:31;4.00;74.00
27633;DHT22;15046;50.930;13.334;2024-01-30T01:24:58;3.90;74.10
27633;DHT22;15046;50.930;13.334;2024-01-30T01:27:24;3.90;74.10
27633;DHT22;15046;50.930;13.334;2024-01-30T01:29:51;3.90;74.20
27633;DHT22;15046;50.930;13.334;2024-01-30T01:32:16;3.80;74.20
27633;DHT22;15046;50.930;13.334;2024-01-30T01:34:44;3.80;74.40
27633;DHT22;15046;50.930;13.334;2024-01-30T01:37:10;3.80;74.40
27633;DHT22;15046;50.930;13.334;2024-01-30T01:39:35;3.80;74.50
27633;DHT22;15046;50.930;13.334;2024-01-30T01:42:01;3.80;74.60
27633;DHT22;15046;50.930;13.334;2024-01-30T01:44:27;3.80;74.60
27633;DHT22;15046;50.930;13.334;2024-01-30T01:46:54;3.80;74.70
27633;DHT22;15046;50.930;13.334;2024-01-30T01:49:30;3.80;74.70
27633;DHT22;15046;50.930;13.334;2024-01-30T01:51:56;3.80;74.80
27633;DHT22;15046;50.930;13.334;2024-01-30T01:54:23;3.80;74.80
27633;DHT22;15046;50.930;13.334;2024-01-30T01:56:50;3.80;74.90
27633;DHT22;15046;50.930;13.334;2024-01-30T01:59:18;3.80;75.00
27633;DHT22;15046;50.930;13.334;2024-01-30T02:01:44;3.80;75.00
27633;DHT22;15046;50.930;13.334;2024-01-30T02:04:11;3.80;75.10
27633;DHT22;15046;50.930;13.334;2024-01-30T02:06:37;3.80;75.10
27633;DHT22;15046;50.930;13.334;2024-01-30T02:09:03;3.80;75.10
27633;DHT22;15046;50.930;13.334;2024-01-30T02:11:30;3.80;75.10
27633;DHT22;15046;50.930;13.334;2024-01-30T02:14:03;3.70;75.10
27633;DHT22;15046;50.930;13.334;2024-01-30T02:16:29;3.70;75.20
27633;DHT22;15046;50.930;13.334;2024-01-30T02:18:55;3.70;75.20
27633;DHT22;15046;50.930;13.334;2024-01-30T02:21:21;3.60;75.20
27633;DHT22;15046;50.930;13.334;2024-01-30T02:23:47;3.60;75.40
27633;DHT22;15046;50.930;13.334;2024-01-30T02:26:14;3.60;75.50
27633;DHT22;15046;50.930;13.334;2024-01-30T02:28:40;3.60;75.70
27633;DHT22;15046;50.930;13.334;2024-01-30T02:31:05;3.50;75.70
27633;DHT22;15046;50.930;13.334;2024-01-30T02:33:31;3.40;75.90
27633;DHT22;15046;50.930;13.334;2024-01-30T02:35:57;3.40;76.10
27633;DHT22;15046;50.930;13.334;2024-01-30T02:38:24;3.30;76.20
27633;DHT22;15046;50.930;13.334;2024-01-30T02:40:50;3.30;76.50
27633;DHT22;15046;50.930;13.334;2024-01-30T02:43:16;3.20;76.60
27633;DHT22;15046;50.930;13.334;2024-01-30T02:45:42;3.20;76.90
27633;DHT22;15046;50.930;13.334;2024-01-30T02:48:08;3.20;77.60
27633;DHT22;15046;50.930;13.334;2024-01-30T02:50:33;3.20;77.10
27633;DHT22;15046;50.930;13.334;2024-01-30T02:52:59;3.20;77.30
27633;DHT22;15046;50.930;13.334;2024-01-30T02:55:25;3.30;77.30
27633;DHT22;15046;50.930;13.334;2024-01-30T02:57:51;3.40;77.20
27633;DHT22;15046;50.930;13.334;2024-01-30T03:00:17;3.50;77.10
27633;DHT22;15046;50.930;13.334;2024-01-30T03:02:42;3.40;77.00
27633;DHT22;15046;50.930;13.334;2024-01-30T03:05:08;3.50;77.10
27633;DHT22;15046;50.930;13.334;2024-01-30T03:07:34;3.40;77.10
27633;DHT22;15046;50.930;13.334;2024-01-30T03:10:00;3.30;77.20
27633;DHT22;15046;50.930;13.334;2024-01-30T03:12:26;3.40;77.40
27633;DHT22;15046;50.930;13.334;2024-01-30T03:14:52;3.30;77.50
27633;DHT22;15046;50.930;13.334;2024-01-30T03:17:18;3.30;77.60
27633;DHT22;15046;50.930;13.334;2024-01-30T03:19:43;3.30;77.60
27633;DHT22;15046;50.930;13.334;2024-01-30T03:22:09;3.30;77.70
27633;DHT22;15046;50.930;13.334;2024-01-30T03:24:35;3.30;77.80
27633;DHT22;15046;50.930;13.334;2024-01-30T03:27:01;3.20;77.80
27633;DHT22;15046;50.930;13.334;2024-01-30T03:29:26;3.20;77.90
27633;DHT22;15046;50.930;13.334;2024-01-30T03:31:52;3.20;78.10
27633;DHT22;15046;50.930;13.334;2024-01-30T03:34:18;3.20;78.30
27633;DHT22;15046;50.930;13.334;2024-01-30T03:36:44;3.20;78.40
27633;DHT22;15046;50.930;13.334;2024-01-30T03:39:09;3.10;78.50
27633;DHT22;15046;50.930;13.334;2024-01-30T03:41:35;3.10;78.60
27633;DHT22;15046;50.930;13.334;2024-01-30T03:44:01;3.10;78.70
27633;DHT22;15046;50.930;13.334;2024-01-30T03:46:27;3.10;78.90
27633;DHT22;15046;50.930;13.334;2024-01-30T03:48:54;3.10;79.10
27633;DHT22;15046;50.930;13.334;2024-01-30T03:51:20;3.10;79.20
27633;DHT22;15046;50.930;13.334;2024-01-30T03:53:46;3.00;79.30
27633;DHT22;15046;50.930;13.334;2024-01-30T03:56:12;3.00;79.50
27633;DHT22;15046;50.930;13.334;2024-01-30T03:58:39;3.00;79.60
27633;DHT22;15046;50.930;13.334;2024-01-30T04:01:05;2.90;79.70
27633;DHT22;15046;50.930;13.334;2024-01-30T04:03:30;2.90;79.90
27633;DHT22;15046;50.930;13.334;2024-01-30T04:05:56;2.90;80.00
27633;DHT22;15046;50.930;13.334;2024-01-30T04:08:22;2.90;80.20
27633;DHT22;15046;50.930;13.334;2024-01-30T04:10:48;2.80;80.40
27633;DHT22;15046;50.930;13.334;2024-01-30T04:13:13;2.80;80.50
27633;DHT22;15046;50.930;13.334;2024-01-30T04:15:39;2.80;80.70
27633;DHT22;15046;50.930;13.334;2024-01-30T04:18:06;2.80;80.90
27633;DHT22;15046;50.930;13.334;2024-01-30T04:20:31;2.80;81.00
27633;DHT22;15046;50.930;13.334;2024-01-30T04:22:57;2.80;81.10
27633;DHT22;15046;50.930;13.334;2024-01-30T04:25:23;2.70;81.20
27633;DHT22;15046;50.930;13.334;2024-01-30T04:27:49;2.70;81.30
27633;DHT22;15046;50.930;13.334;2024-01-30T04:30:15;2.70;81.50
27633;DHT22;15046;50.930;13.334;2024-01-30T04:32:41;2.60;81.70
27633;DHT22;15046;50.930;13.334;2024-01-30T04:35:07;2.60;81.90
27633;DHT22;15046;50.930;13.334;2024-01-30T04:37:33;2.50;81.90
27633;DHT22;15046;50.930;13.334;2024-01-30T04:39:59;2.50;82.10
27633;DHT22;15046;50.930;13.334;2024-01-30T04:42:24;2.50;82.40
27633;DHT22;15046;50.930;13.334;2024-01-30T04:44:50;2.40;82.60
27633;DHT22;15046;50.930;13.334;2024-01-30T04:47:16;2.50;82.80
27633;DHT22;15046;50.930;13.334;2024-01-30T04:49:42;2.60;82.90
27633;DHT22;15046;50.930;13.334;2024-01-30T04:52:08;2.70;83.00
27633;DHT22;15046;50.930;13.334;2024-01-30T04:54:35;2.80;82.90
27633;DHT22;15046;50.930;13.334;2024-01-30T04:57:01;2.90;82.80
27633;DHT22;15046;50.930;13.334;2024-01-30T04:59:27;2.90;82.60
27633;DHT22;15046;50.930;13.334;2024-01-30T05:01:53;3.00;82.70
27633;DHT22;15046;50.930;13.334;2024-01-30T05:04:19;3.00;82.60
27633;DHT22;15046;50.930;13.334;2024-01-30T05:06:45;3.00;82.70
27633;DHT22;15046;50.930;13.334;2024-01-30T05:09:11;3.10;82.60
27633;DHT22;15046;50.930;13.334;2024-01-30T05:11:40;3.30;82.60
27633;DHT22;15046;50.930;13.334;2024-01-30T05:14:07;3.30;82.30
27633;DHT22;15046;50.930;13.334;2024-01-30T05:16:34;3.40;82.10
27633;DHT22;15046;50.930;13.334;2024-01-30T05:19:00;3.50;81.90
27633;DHT22;15046;50.930;13.334;2024-01-30T05:21:26;3.60;81.70
27633;DHT22;15046;50.930;13.334;2024-01-30T05:23:51;3.70;81.50
27633;DHT22;15046;50.930;13.334;2024-01-30T05:26:17;3.70;81.40
27633;DHT22;15046;50.930;13.334;2024-01-30T05:28:45;3.80;81.30
27633;DHT22;15046;50.930;13.334;2024-01-30T05:31:10;3.80;81.10
27633;DHT22;15046;50.930;13.334;2024-01-30T05:33:36;3.80;80.90
27633;DHT22;15046;50.930;13.334;2024-01-30T05:36:03;3.80;80.80
27633;DHT22;15046;50.930;13.334;2024-01-30T05:38:28;3.90;80.70
27633;DHT22;15046;50.930;13.334;2024-01-30T05:40:54;3.90;80.70
27633;DHT22;15046;50.930;13.334;2024-01-30T05:43:20;3.90;80.50
27633;DHT22;15046;50.930;13.334;2024-01-30T05:45:46;3.90;80.40
27633;DHT22;15046;50.930;13.334;2024-01-30T05:48:12;3.90;80.40
27633;DHT22;15046;50.930;13.334;2024-01-30T05:50:38;3.90;80.30
27633;DHT22;15046;50.930;13.334;2024-01-30T05:53:03;3.90;80.30
27633;DHT22;15046;50.930;13.334;2024-01-30T05:55:29;4.00;80.20
27633;DHT22;15046;50.930;13.334;2024-01-30T05:57:55;4.00;79.90
27633;DHT22;15046;50.930;13.334;2024-01-30T06:00:21;4.00;79.80
27633;DHT22;15046;50.930;13.334;2024-01-30T06:02:47;4.00;79.70
27633;DHT22;15046;50.930;13.334;2024-01-30T06:05:12;4.10;79.60
27633;DHT22;15046;50.930;13.334;2024-01-30T06:07:38;4.10;79.50
27633;DHT22;15046;50.930;13.334;2024-01-30T06:10:04;4.10;79.40
27633;DHT22;15046;50.930;13.334;2024-01-30T06:12:30;4.10;79.30
27633;DHT22;15046;50.930;13.334;2024-01-30T06:14:56;4.20;79.10
27633;DHT22;15046;50.930;13.334;2024-01-30T06:17:23;4.20;79.00
27633;DHT22;15046;50.930;13.334;2024-01-30T06:19:49;4.10;78.80
27633;DHT22;15046;50.930;13.334;2024-01-30T06:22:15;4.10;78.80
27633;DHT22;15046;50.930;13.334;2024-01-30T06:24:41;4.20;78.80
27633;DHT22;15046;50.930;13.334;2024-01-30T06:27:06;4.20;78.70
27633;DHT22;15046;50.930;13.334;2024-01-30T06:29:32;4.20;78.60
27633;DHT22;15046;50.930;13.334;2024-01-30T06:31:58;4.20;78.50
27633;DHT22;15046;50.930;13.334;2024-01-30T06:34:24;4.20;78.50
27633;DHT22;15046;50.930;13.334;2024-01-30T06:36:52;4.30;78.40
27633;DHT22;15046;50.930;13.334;2024-01-30T06:39:17;4.30;78.30
27633;DHT22;15046;50.930;13.334;2024-01-30T06:41:43;4.30;78.20
27633;DHT22;15046;50.930;13.334;2024-01-30T06:44:09;4.30;78.10
27633;DHT22;15046;50.930;13.334;2024-01-30T06:46:35;4.30;78.10
27633;DHT22;15046;50.930;13.334;2024-01-30T06:49:01;4.20;78.20
27633;DHT22;15046;50.930;13.334;2024-01-30T06:51:27;4.20;78.20
27633;DHT22;15046;50.930;13.334;2024-01-30T06:53:53;4.20;78.30
27633;DHT22;15046;50.930;13.334;2024-01-30T06:56:18;4.20;79.00
27633;DHT22;15046;50.930;13.334;2024-01-30T06:58:52;4.30;78.30
27633;DHT22;15046;50.930;13.334;2024-01-30T07:01:18;4.30;78.20
27633;DHT22;15046;50.930;13.334;2024-01-30T07:03:45;4.30;78.10
27633;DHT22;15046;50.930;13.334;2024-01-30T07:06:11;4.30;78.20
27633;DHT22;15046;50.930;13.334;2024-01-30T07:08:37;4.30;78.10
27633;DHT22;15046;50.930;13.334;2024-01-30T07:11:05;4.40;78.10
27633;DHT22;15046;50.930;13.334;2024-01-30T07:13:31;4.40;78.10
27633;DHT22;15046;50.930;13.334;2024-01-30T07:15:57;4.40;78.00
27633;DHT22;15046;50.930;13.334;2024-01-30T07:18:23;4.50;78.00
27633;DHT22;15046;50.930;13.334;2024-01-30T07:20:49;4.50;77.80
27633;DHT22;15046;50.930;13.334;2024-01-30T07:23:16;4.60;77.60
27633;DHT22;15046;50.930;13.334;2024-01-30T07:25:46;4.60;77.50
27633;DHT22;15046;50.930;13.334;2024-01-30T07:28:14;4.70;77.40
27633;DHT22;15046;50.930;13.334;2024-01-30T07:30:42;4.70;77.20
27633;DHT22;15046;50.930;13.334;2024-01-30T07:33:08;4.80;77.10
27633;DHT22;15046;50.930;13.334;2024-01-30T07:35:35;4.80;77.00
27633;DHT22;15046;50.930;13.334;2024-01-30T07:38:01;4.90;76.90
27633;DHT22;15046;50.930;13.334;2024-01-30T07:40:26;5.00;76.80
27633;DHT22;15046;50.930;13.334;2024-01-30T07:42:53;5.00;76.60
27633;DHT22;15046;50.930;13.334;2024-01-30T07:45:20;5.00;76.50
27633;DHT22;15046;50.930;13.334;2024-01-30T07:47:50;5.10;76.40
27633;DHT22;15046;50.930;13.334;2024-01-30T07:50:16;5.20;76.30
27633;DHT22;15046;50.930;13.334;2024-01-30T07:52:43;5.20;76.20
27633;DHT22;15046;50.930;13.334;2024-01-30T07:55:08;5.20;76.00
27633;DHT22;15046;50.930;13.334;2024-01-30T07:57:34;5.30;76.00
27633;DHT22;15046;50.930;13.334;2024-01-30T08:00:04;5.30;75.90
27633;DHT22;15046;50.930;13.334;2024-01-30T08:02:31;5.30;75.90
27633;DHT22;15046;50.930;13.334;2024-01-30T08:04:57;5.40;75.80
27633;DHT22;15046;50.930;13.334;2024-01-30T08:07:22;5.40;75.60
27633;DHT22;15046;50.930;13.334;2024-01-30T08:09:48;5.50;75.60
27633;DHT22;15046;50.930;13.334;2024-01-30T08:12:14;5.60;75.40
27633;DHT22;15046;50.930;13.334;2024-01-30T08:14:40;5.60;75.20
27633;DHT22;15046;50.930;13.334;2024-01-30T08:17:07;5.60;75.10
27633;DHT22;15046;50.930;13.334;2024-01-30T08:19:33;5.70;75.30
27633;DHT22;15046;50.930;13.334;2024-01-30T08:21:59;5.70;74.80
27633;DHT22;15046;50.930;13.334;2024-01-30T08:24:25;5.80;74.70
27633;DHT22;15046;50.930;13.334;2024-01-30T08:26:51;5.90;74.50
27633;DHT22;15046;50.930;13.334;2024-01-30T08:31:52;6.00;74.30
27633;DHT22;15046;50.930;13.334;2024-01-30T08:34:17;6.10;74.20
27633;DHT22;15046;50.930;13.334;2024-01-30T08:36:43;6.10;73.90
27633;DHT22;15046;50.930;13.334;2024-01-30T08:39:10;6.30;73.60
27633;DHT22;15046;50.930;13.334;2024-01-30T08:41:36;6.50;73.00
27633;DHT22;15046;50.930;13.334;2024-01-30T08:44:02;6.60;72.40
27633;DHT22;15046;50.930;13.334;2024-01-30T08:46:28;6.70;71.90
27633;DHT22;15046;50.930;13.334;2024-01-30T08:48:54;6.90;71.40
27633;DHT22;15046;50.930;13.334;2024-01-30T08:51:20;7.00;71.00
27633;DHT22;15046;50.930;13.334;2024-01-30T08:53:45;7.10;70.70
27633;DHT22;15046;50.930;13.334;2024-01-30T08:56:11;7.20;70.50
27633;DHT22;15046;50.930;13.334;2024-01-30T08:58:37;7.20;70.20
27633;DHT22;15046;50.930;13.334;2024-01-30T09:01:03;7.30;70.10
27633;DHT22;15046;50.930;13.334;2024-01-30T09:03:31;7.40;70.00
27633;DHT22;15046;50.930;13.334;2024-01-30T09:05:56;7.40;69.80
27633;DHT22;15046;50.930;13.334;2024-01-30T09:08:22;7.50;69.70
27633;DHT22;15046;50.930;13.334;2024-01-30T09:10:48;7.60;69.50
27633;DHT22;15046;50.930;13.334;2024-01-30T09:13:15;7.70;69.40
27633;DHT22;15046;50.930;13.334;2024-01-30T09:15:41;7.70;69.20
27633;DHT22;15046;50.930;13.334;2024-01-30T09:18:07;7.90;69.00
27633;DHT22;15046;50.930;13.334;2024-01-30T09:20:33;8.00;68.80
27633;DHT22;15046;50.930;13.334;2024-01-30T09:22:59;8.00;68.30
27633;DHT22;15046;50.930;13.334;2024-01-30T09:25:25;8.10;68.10
27633;DHT22;15046;50.930;13.334;2024-01-30T09:27:50;8.20;67.80
27633;DHT22;15046;50.930;13.334;2024-01-30T09:30:16;8.30;67.60
27633;DHT22;15046;50.930;13.334;2024-01-30T09:32:43;8.40;67.10
27633;DHT22;15046;50.930;13.334;2024-01-30T09:35:09;8.50;66.80
27633;DHT22;15046;50.930;13.334;2024-01-30T09:37:34;8.60;66.40
27633;DHT22;15046;50.930;13.334;2024-01-30T09:40:00;8.80;66.10
27633;DHT22;15046;50.930;13.334;2024-01-30T09:42:28;8.90;65.90
27633;DHT22;15046;50.930;13.334;2024-01-30T09:44:54;9.10;65.70
27633;DHT22;15046;50.930;13.334;2024-01-30T09:47:20;9.30;65.30
27633;DHT22;15046;50.930;13.334;2024-01-30T09:49:46;9.50;64.90
27633;DHT22;15046;50.930;13.334;2024-01-30T09:52:13;9.80;64.60
27633;DHT22;15046;50.930;13.334;2024-01-30T09:54:41;10.10;64.00
27633;DHT22;15046;50.930;13.334;2024-01-30T09:57:07;10.30;63.60
27633;DHT22;15046;50.930;13.334;2024-01-30T09:59:34;10.60;63.50
27633;DHT22;15046;50.930;13.334;2024-01-30T10:02:00;10.80;62.90
27633;DHT22;15046;50.930;13.334;2024-01-30T10:04:26;10.90;62.30
27633;DHT22;15046;50.930;13.334;2024-01-30T10:06:52;11.00;62.10
27633;DHT22;15046;50.930;13.334;2024-01-30T10:09:17;11.30;61.70
27633;DHT22;15046;50.930;13.334;2024-01-30T10:11:43;11.50;61.10
27633;DHT22;15046;50.930;13.334;2024-01-30T10:14:09;11.70;60.80
27633;DHT22;15046;50.930;13.334;2024-01-30T10:16:35;11.90;60.00
27633;DHT22;15046;50.930;13.334;2024-01-30T10:19:01;12.20;59.50
27633;DHT22;15046;50.930;13.334;2024-01-30T10:21:27;12.50;58.90
27633;DHT22;15046;50.930;13.334;2024-01-30T10:23:52;12.70;58.40
27633;DHT22;15046;50.930;13.334;2024-01-30T10:26:18;12.90;58.10
27633;DHT22;15046;50.930;13.334;2024-01-30T10:28:45;13.10;57.90
27633;DHT22;15046;50.930;13.334;2024-01-30T10:31:11;13.50;58.00
27633;DHT22;15046;50.930;13.334;2024-01-30T10:33:36;13.90;56.60
27633;DHT22;15046;50.930;13.334;2024-01-30T10:36:06;14.40;55.80
27633;DHT22;15046;50.930;13.334;2024-01-30T10:38:32;14.70;55.10
27633;DHT22;15046;50.930;13.334;2024-01-30T10:40:59;15.10;54.50
27633;DHT22;15046;50.930;13.334;2024-01-30T10:43:31;15.50;53.90
27633;DHT22;15046;50.930;13.334;2024-01-30T10:46:11;15.90;53.30
27633;DHT22;15046;50.930;13.334;2024-01-30T10:48:43;16.40;51.90
27633;DHT22;15046;50.930;13.334;2024-01-30T10:51:13;16.70;52.40
27633;DHT22;15046;50.930;13.334;2024-01-30T10:53:40;16.90;52.10
27633;DHT22;15046;50.930;13.334;2024-01-30T10:56:08;17.00;51.50
27633;DHT22;15046;50.930;13.334;2024-01-30T10:58:34;17.00;51.20
27633;DHT22;15046;50.930;13.334;2024-01-30T11:01:00;16.80;51.80
27633;DHT22;15046;50.930;13.334;2024-01-30T11:03:26;16.70;51.50
27633;DHT22;15046;50.930;13.334;2024-01-30T11:05:52;16.80;51.50
27633;DHT22;15046;50.930;13.334;2024-01-30T11:08:25;16.90;51.20
27633;DHT22;15046;50.930;13.334;2024-01-30T11:10:57;17.30;50.90
27633;DHT22;15046;50.930;13.334;2024-01-30T11:13:27;17.80;50.50
27633;DHT22;15046;50.930;13.334;2024-01-30T11:15:54;18.10;49.90
27633;DHT22;15046;50.930;13.334;2024-01-30T11:18:26;18.20;49.60
27633;DHT22;15046;50.930;13.334;2024-01-30T11:20:56;18.10;49.00
27633;DHT22;15046;50.930;13.334;2024-01-30T11:23:23;17.80;49.10
27633;DHT22;15046;50.930;13.334;2024-01-30T11:25:48;17.40;49.40
27633;DHT22;15046;50.930;13.334;2024-01-30T11:28:15;17.10;49.50
27633;DHT22;15046;50.930;13.334;2024-01-30T11:30:42;16.80;49.80
27633;DHT22;15046;50.930;13.334;2024-01-30T11:33:12;16.60;49.40
27633;DHT22;15046;50.930;13.334;2024-01-30T11:35:40;16.50;49.20
27633;DHT22;15046;50.930;13.334;2024-01-30T11:38:07;16.40;49.20
27633;DHT22;15046;50.930;13.334;2024-01-30T11:40:34;16.50;49.30
27633;DHT22;15046;50.930;13.334;2024-01-30T11:43:01;16.80;49.20
27633;DHT22;15046;50.930;13.334;2024-01-30T11:45:28;17.10;48.60
27633;DHT22;15046;50.930;13.334;2024-01-30T11:47:55;17.40;48.40
27633;DHT22;15046;50.930;13.334;2024-01-30T11:50:21;17.70;48.10
27633;DHT22;15046;50.930;13.334;2024-01-30T11:52:47;17.80;47.80
27633;DHT22;15046;50.930;13.334;2024-01-30T11:55:14;17.40;47.60
27633;DHT22;15046;50.930;13.334;2024-01-30T11:57:40;17.00;48.10
27633;DHT22;15046;50.930;13.334;2024-01-30T12:00:13;16.50;48.50
27633;DHT22;15046;50.930;13.334;2024-01-30T12:02:40;16.30;49.10
27633;DHT22;15046;50.930;13.334;2024-01-30T12:05:06;16.00;49.30
27633;DHT22;15046;50.930;13.334;2024-01-30T12:07:33;16.00;49.40
27633;DHT22;15046;50.930;13.334;2024-01-30T12:09:59;16.20;49.30
27633;DHT22;15046;50.930;13.334;2024-01-30T12:12:28;16.20;49.40
27633;DHT22;15046;50.930;13.334;2024-01-30T12:14:56;16.20;49.60
27633;DHT22;15046;50.930;13.334;2024-01-30T12:17:32;16.20;49.60
27633;DHT22;15046;50.930;13.334;2024-01-30T12:22:39;16.70;49.40
27633;DHT22;15046;50.930;13.334;2024-01-30T12:25:17;17.00;49.30
27633;DHT22;15046;50.930;13.334;2024-01-30T12:27:45;17.20;48.90
27633;DHT22;15046;50.930;13.334;2024-01-30T12:30:15;17.10;49.10
27633;DHT22;15046;50.930;13.334;2024-01-30T12:32:45;16.80;49.40
27633;DHT22;15046;50.930;13.334;2024-01-30T12:35:12;16.60;50.00
27633;DHT22;15046;50.930;13.334;2024-01-30T12:37:39;16.90;50.10
27633;DHT22;15046;50.930;13.334;2024-01-30T12:40:07;17.50;49.80
27633;DHT22;15046;50.930;13.334;2024-01-30T12:42:33;18.00;49.10
27633;DHT22;15046;50.930;13.334;2024-01-30T12:44:59;18.40;48.80
27633;DHT22;15046;50.930;13.334;2024-01-30T12:47:25;18.80;48.50
27633;DHT22;15046;50.930;13.334;2024-01-30T12:49:51;19.10;48.30
27633;DHT22;15046;50.930;13.334;2024-01-30T12:52:20;19.20;48.20
27633;DHT22;15046;50.930;13.334;2024-01-30T12:54:47;19.30;48.10
27633;DHT22;15046;50.930;13.334;2024-01-30T12:57:13;19.00;48.20
27633;DHT22;15046;50.930;13.334;2024-01-30T12:59:38;18.20;49.10
27633;DHT22;15046;50.930;13.334;2024-01-30T13:02:05;17.30;50.30
27633;DHT22;15046;50.930;13.334;2024-01-30T13:04:32;16.80;51.50
27633;DHT22;15046;50.930;13.334;2024-01-30T13:06:58;16.70;51.90
27633;DHT22;15046;50.930;13.334;2024-01-30T13:09:26;16.50;52.40
27633;DHT22;15046;50.930;13.334;2024-01-30T13:11:51;16.40;52.60
27633;DHT22;15046;50.930;13.334;2024-01-30T13:14:18;16.40;52.70
27633;DHT22;15046;50.930;13.334;2024-01-30T13:16:44;16.20;53.00
27633;DHT22;15046;50.930;13.334;2024-01-30T13:19:10;16.00;53.50
27633;DHT22;15046;50.930;13.334;2024-01-30T13:21:36;16.00;53.70
27633;DHT22;15046;50.930;13.334;2024-01-30T13:24:02;16.40;53.90
27633;DHT22;15046;50.930;13.334;2024-01-30T13:26:28;17.00;53.40
27633;DHT22;15046;50.930;13.334;2024-01-30T13:28:54;17.40;52.90
27633;DHT22;15046;50.930;13.334;2024-01-30T13:31:20;17.60;52.60
27633;DHT22;15046;50.930;13.334;2024-01-30T13:33:46;17.70;52.50
27633;DHT22;15046;50.930;13.334;2024-01-30T13:36:12;17.70;52.80
27633;DHT22;15046;50.930;13.334;2024-01-30T13:38:38;17.70;52.90
27633;DHT22;15046;50.930;13.334;2024-01-30T13:41:04;17.90;52.90
27633;DHT22;15046;50.930;13.334;2024-01-30T13:43:30;18.10;52.60
27633;DHT22;15046;50.930;13.334;2024-01-30T13:45:56;18.10;52.20
27633;DHT22;15046;50.930;13.334;2024-01-30T13:48:22;17.80;52.70
27633;DHT22;15046;50.930;13.334;2024-01-30T13:50:48;17.50;53.20
27633;DHT22;15046;50.930;13.334;2024-01-30T13:53:13;17.40;53.70
27633;DHT22;15046;50.930;13.334;2024-01-30T13:55:39;17.40;53.80
27633;DHT22;15046;50.930;13.334;2024-01-30T13:58:06;17.40;53.70
27633;DHT22;15046;50.930;13.334;2024-01-30T14:00:32;17.30;53.70
27633;DHT22;15046;50.930;13.334;2024-01-30T14:02:59;17.10;54.50
27633;DHT22;15046;50.930;13.334;2024-01-30T14:05:26;17.00;54.40
27633;DHT22;15046;50.930;13.334;2024-01-30T14:07:53;16.90;54.60
27633;DHT22;15046;50.930;13.334;2024-01-30T14:10:19;16.90;54.70
27633;DHT22;15046;50.930;13.334;2024-01-30T14:12:45;16.60;54.90
27633;DHT22;15046;50.930;13.334;2024-01-30T14:15:14;16.20;55.90
27633;DHT22;15046;50.930;13.334;2024-01-30T14:17:47;15.80;56.10
27633;DHT22;15046;50.930;13.334;2024-01-30T14:20:14;15.30;56.70
27633;DHT22;15046;50.930;13.334;2024-01-30T14:22:42;14.90;57.40
27633;DHT22;15046;50.930;13.334;2024-01-30T14:25:09;14.60;58.10
27633;DHT22;15046;50.930;13.334;2024-01-30T14:27:35;14.40;58.50
27633;DHT22;15046;50.930;13.334;2024-01-30T14:30:01;14.20;58.80
27633;DHT22;15046;50.930;13.334;2024-01-30T14:32:27;14.10;59.20
27633;DHT22;15046;50.930;13.334;2024-01-30T14:34:52;13.90;59.40
27633;DHT22;15046;50.930;13.334;2024-01-30T14:37:19;13.80;59.70
27633;DHT22;15046;50.930;13.334;2024-01-30T14:39:46;13.60;59.90
27633;DHT22;15046;50.930;13.334;2024-01-30T14:42:13;13.50;60.10
27633;DHT22;15046;50.930;13.334;2024-01-30T14:44:39;13.30;60.20
27633;DHT22;15046;50.930;13.334;2024-01-30T14:47:06;13.20;60.40
27633;DHT22;15046;50.930;13.334;2024-01-30T14:49:32;13.10;60.70
27633;DHT22;15046;50.930;13.334;2024-01-30T14:51:58;13.10;61.00
27633;DHT22;15046;50.930;13.334;2024-01-30T14:54:29;12.90;61.30
27633;DHT22;15046;50.930;13.334;2024-01-30T14:56:55;12.80;61.50
27633;DHT22;15046;50.930;13.334;2024-01-30T14:59:21;12.70;61.90
27633;DHT22;15046;50.930;13.334;2024-01-30T15:01:47;12.70;62.30
27633;DHT22;15046;50.930;13.334;2024-01-30T15:04:13;12.50;62.50
27633;DHT22;15046;50.930;13.334;2024-01-30T15:06:40;12.40;62.80
27633;DHT22;15046;50.930;13.334;2024-01-30T15:09:11;12.40;63.20
27633;DHT22;15046;50.930;13.334;2024-01-30T15:11:40;12.20;63.40
27633;DHT22;15046;50.930;13.334;2024-01-30T15:14:06;12.20;64.10
27633;DHT22;15046;50.930;13.334;2024-01-30T15:16:32;12.10;64.40
27633;DHT22;15046;50.930;13.334;2024-01-30T15:18:58;12.00;64.60
27633;DHT22;15046;50.930;13.334;2024-01-30T15:21:23;11.90;64.70
27633;DHT22;15046;50.930;13.334;2024-01-30T15:23:49;11.90;65.00
27633;DHT22;15046;50.930;13.334;2024-01-30T15:26:15;11.80;65.20